sensor_id;sensor_type;location;lat;lon;timestamp;P1;durP1;ratioP1;P2;durP2;ratioP2
21621;SDS011;10973;46.706;12.340;2023-05-10T00:02:19;6.83;;;6.27;;
21621;SDS011;10973;46.706;12.340;2023-05-10T00:04:47;6.43;;;5.93;;
21621;SDS011;10973;46.706;12.340;2023-05-10T00:07:15;6.20;;;5.70;;
21621;SDS011;10973;46.706;12.340;2023-05-10T00:09:42;6.03;;;5.43;;
21621;SDS011;10973;46.706;12.340;2023-05-10T00:12:10;6.10;;;5.60;;
21621;SDS011;10973;46.706;12.340;2023-05-10T00:14:37;7.07;;;6.37;;
21621;SDS011;10973;46.706;12.340;2023-05-10T00:17:04;6.87;;;6.27;;
21621;SDS011;10973;46.706;12.340;2023-05-10T00:19:32;5.60;;;5.10;;
21621;SDS011;10973;46.706;12.340;2023-05-10T00:21:59;5.90;;;5.40;;
21621;SDS011;10973;46.706;12.340;2023-05-10T00:24:27;5.53;;;5.03;;
21621;SDS011;10973;46.706;12.340;2023-05-10T00:26:54;5.90;;;5.40;;
21621;SDS011;10973;46.706;12.340;2023-05-10T00:29:21;5.63;;;5.23;;
21621;SDS011;10973;46.706;12.340;2023-05-10T00:31:49;6.17;;;5.67;;
21621;SDS011;10973;46.706;12.340;2023-05-10T00:34:16;5.47;;;4.97;;
21621;SDS011;10973;46.706;12.340;2023-05-10T00:36:43;6.27;;;5.77;;
21621;SDS011;10973;46.706;12.340;2023-05-10T00:39:11;6.33;;;5.77;;
21621;SDS011;10973;46.706;12.340;2023-05-10T00:41:38;5.93;;;5.43;;
21621;SDS011;10973;46.706;12.340;2023-05-10T00:44:05;6.27;;;5.67;;
21621;SDS011;10973;46.706;12.340;2023-05-10T00:46:33;5.27;;;4.87;;
21621;SDS011;10973;46.706;12.340;2023-05-10T00:49:00;5.40;;;4.90;;
21621;SDS011;10973;46.706;12.340;2023-05-10T00:51:28;6.10;;;5.60;;
21621;SDS011;10973;46.706;12.340;2023-05-10T00:53:56;6.83;;;6.13;;
21621;SDS011;10973;46.706;12.340;2023-05-10T00:56:25;7.23;;;5.83;;
21621;SDS011;10973;46.706;12.340;2023-05-10T00:58:53;6.30;;;5.80;;
21621;SDS011;10973;46.706;12.340;2023-05-10T01:01:21;6.57;;;5.90;;
21621;SDS011;10973;46.706;12.340;2023-05-10T01:03:49;6.20;;;5.60;;
21621;SDS011;10973;46.706;12.340;2023-05-10T01:06:17;7.40;;;6.70;;
21621;SDS011;10973;46.706;12.340;2023-05-10T01:08:44;8.83;;;7.93;;
21621;SDS011;10973;46.706;12.340;2023-05-10T01:11:12;11.37;;;8.83;;
21621;SDS011;10973;46.706;12.340;2023-05-10T01:13:41;8.97;;;8.07;;
21621;SDS011;10973;46.706;12.340;2023-05-10T01:16:12;7.10;;;6.17;;
21621;SDS011;10973;46.706;12.340;2023-05-10T01:18:40;6.17;;;5.67;;
21621;SDS011;10973;46.706;12.340;2023-05-10T01:24:28;6.90;;;6.20;;
21621;SDS011;10973;46.706;12.340;2023-05-10T01:35:58;8.50;;;7.70;;
21621;SDS011;10973;46.706;12.340;2023-05-10T01:38:43;7.87;;;6.47;;
21621;SDS011;10973;46.706;12.340;2023-05-10T01:44:38;6.17;;;5.67;;
21621;SDS011;10973;46.706;12.340;2023-05-10T01:47:14;6.40;;;5.90;;
21621;SDS011;10973;46.706;12.340;2023-05-10T01:49:56;6.77;;;6.17;;
21621;SDS011;10973;46.706;12.340;2023-05-10T01:52:41;6.40;;;5.30;;
21621;SDS011;10973;46.706;12.340;2023-05-10T01:55:13;7.27;;;6.67;;
21621;SDS011;10973;46.706;12.340;2023-05-10T01:57:44;8.53;;;7.60;;
21621;SDS011;10973;46.706;12.340;2023-05-10T02:00:17;8.73;;;7.80;;
21621;SDS011;10973;46.706;12.340;2023-05-10T02:02:47;7.70;;;7.00;;
21621;SDS011;10973;46.706;12.340;2023-05-10T02:05:17;7.87;;;7.17;;
21621;SDS011;10973;46.706;12.340;2023-05-10T02:07:47;7.10;;;6.50;;
21621;SDS011;10973;46.706;12.340;2023-05-10T02:10:16;7.93;;;7.17;;
21621;SDS011;10973;46.706;12.340;2023-05-10T02:12:47;7.50;;;6.90;;
21621;SDS011;10973;46.706;12.340;2023-05-10T02:15:18;7.53;;;6.83;;
21621;SDS011;10973;46.706;12.340;2023-05-10T02:17:50;6.73;;;6.13;;
21621;SDS011;10973;46.706;12.340;2023-05-10T02:20:22;6.37;;;5.87;;
21621;SDS011;10973;46.706;12.340;2023-05-10T02:22:53;7.07;;;6.47;;
21621;SDS011;10973;46.706;12.340;2023-05-10T02:25:24;7.40;;;5.97;;
21621;SDS011;10973;46.706;12.340;2023-05-10T02:27:54;5.67;;;5.17;;
21621;SDS011;10973;46.706;12.340;2023-05-10T02:30:24;6.17;;;5.67;;
21621;SDS011;10973;46.706;12.340;2023-05-10T02:32:52;6.00;;;5.50;;
21621;SDS011;10973;46.706;12.340;2023-05-10T02:35:21;6.70;;;6.10;;
21621;SDS011;10973;46.706;12.340;2023-05-10T02:37:50;6.50;;;6.00;;
21621;SDS011;10973;46.706;12.340;2023-05-10T02:40:19;6.67;;;6.07;;
21621;SDS011;10973;46.706;12.340;2023-05-10T02:42:50;6.40;;;5.90;;
21621;SDS011;10973;46.706;12.340;2023-05-10T02:45:23;6.50;;;5.90;;
21621;SDS011;10973;46.706;12.340;2023-05-10T02:47:56;6.83;;;6.23;;
21621;SDS011;10973;46.706;12.340;2023-05-10T02:50:25;6.10;;;5.60;;
21621;SDS011;10973;46.706;12.340;2023-05-10T02:52:59;7.10;;;6.27;;
21621;SDS011;10973;46.706;12.340;2023-05-10T02:55:32;6.83;;;6.23;;
21621;SDS011;10973;46.706;12.340;2023-05-10T02:58:06;6.90;;;6.30;;
21621;SDS011;10973;46.706;12.340;2023-05-10T03:00:34;8.17;;;6.97;;
21621;SDS011;10973;46.706;12.340;2023-05-10T03:03:01;8.07;;;7.27;;
21621;SDS011;10973;46.706;12.340;2023-05-10T03:05:28;8.60;;;7.80;;
21621;SDS011;10973;46.706;12.340;2023-05-10T03:07:56;8.90;;;7.97;;
21621;SDS011;10973;46.706;12.340;2023-05-10T03:10:26;8.33;;;7.63;;
21621;SDS011;10973;46.706;12.340;2023-05-10T03:13:01;11.67;;;9.03;;
21621;SDS011;10973;46.706;12.340;2023-05-10T03:15:56;10.73;;;8.47;;
21621;SDS011;10973;46.706;12.340;2023-05-10T03:18:37;9.13;;;8.30;;
21621;SDS011;10973;46.706;12.340;2023-05-10T03:21:07;10.40;;;7.70;;
21621;SDS011;10973;46.706;12.340;2023-05-10T03:23:41;8.23;;;7.53;;
21621;SDS011;10973;46.706;12.340;2023-05-10T03:26:34;7.37;;;6.67;;
21621;SDS011;10973;46.706;12.340;2023-05-10T03:29:04;7.93;;;6.70;;
21621;SDS011;10973;46.706;12.340;2023-05-10T03:31:33;8.33;;;7.53;;
21621;SDS011;10973;46.706;12.340;2023-05-10T03:34:01;12.07;;;10.87;;
21621;SDS011;10973;46.706;12.340;2023-05-10T03:36:29;9.80;;;8.60;;
21621;SDS011;10973;46.706;12.340;2023-05-10T03:38:56;8.93;;;8.03;;
21621;SDS011;10973;46.706;12.340;2023-05-10T03:41:24;7.53;;;6.83;;
21621;SDS011;10973;46.706;12.340;2023-05-10T03:43:51;6.27;;;5.77;;
21621;SDS011;10973;46.706;12.340;2023-05-10T03:46:18;8.50;;;7.63;;
21621;SDS011;10973;46.706;12.340;2023-05-10T03:48:46;8.93;;;8.03;;
21621;SDS011;10973;46.706;12.340;2023-05-10T03:51:13;9.17;;;8.27;;
21621;SDS011;10973;46.706;12.340;2023-05-10T03:53:40;8.53;;;7.73;;
21621;SDS011;10973;46.706;12.340;2023-05-10T03:56:07;8.50;;;7.17;;
21621;SDS011;10973;46.706;12.340;2023-05-10T03:58:35;7.30;;;6.70;;
21621;SDS011;10973;46.706;12.340;2023-05-10T04:01:02;7.80;;;7.07;;
21621;SDS011;10973;46.706;12.340;2023-05-10T04:03:29;7.00;;;6.40;;
21621;SDS011;10973;46.706;12.340;2023-05-10T04:06:00;7.13;;;6.47;;
21621;SDS011;10973;46.706;12.340;2023-05-10T04:08:28;6.57;;;5.97;;
21621;SDS011;10973;46.706;12.340;2023-05-10T04:11:08;6.70;;;5.90;;
21621;SDS011;10973;46.706;12.340;2023-05-10T04:13:38;6.50;;;6.00;;
21621;SDS011;10973;46.706;12.340;2023-05-10T04:16:05;6.20;;;5.50;;
21621;SDS011;10973;46.706;12.340;2023-05-10T04:18:32;6.10;;;5.60;;
21621;SDS011;10973;46.706;12.340;2023-05-10T04:21:00;11.03;;;6.63;;
21621;SDS011;10973;46.706;12.340;2023-05-10T04:23:27;6.03;;;5.53;;
21621;SDS011;10973;46.706;12.340;2023-05-10T04:26:01;6.30;;;5.80;;
21621;SDS011;10973;46.706;12.340;2023-05-10T04:28:29;7.90;;;7.20;;
21621;SDS011;10973;46.706;12.340;2023-05-10T04:31:06;12.47;;;10.37;;
21621;SDS011;10973;46.706;12.340;2023-05-10T04:33:35;8.80;;;8.00;;
21621;SDS011;10973;46.706;12.340;2023-05-10T04:36:03;8.30;;;7.60;;
21621;SDS011;10973;46.706;12.340;2023-05-10T04:38:31;9.40;;;8.60;;
21621;SDS011;10973;46.706;12.340;2023-05-10T04:41:05;7.30;;;6.70;;
21621;SDS011;10973;46.706;12.340;2023-05-10T04:43:34;6.83;;;6.23;;
21621;SDS011;10973;46.706;12.340;2023-05-10T04:46:03;6.23;;;5.73;;
21621;SDS011;10973;46.706;12.340;2023-05-10T04:48:31;5.93;;;5.43;;
21621;SDS011;10973;46.706;12.340;2023-05-10T04:50:59;6.03;;;5.53;;
21621;SDS011;10973;46.706;12.340;2023-05-10T04:53:27;5.90;;;5.40;;
21621;SDS011;10973;46.706;12.340;2023-05-10T04:55:54;6.93;;;5.37;;
21621;SDS011;10973;46.706;12.340;2023-05-10T04:58:22;6.43;;;5.90;;
21621;SDS011;10973;46.706;12.340;2023-05-10T05:00:49;5.70;;;5.20;;
21621;SDS011;10973;46.706;12.340;2023-05-10T05:03:16;5.53;;;5.13;;
21621;SDS011;10973;46.706;12.340;2023-05-10T05:05:44;5.73;;;5.20;;
21621;SDS011;10973;46.706;12.340;2023-05-10T05:08:11;6.07;;;5.57;;
21621;SDS011;10973;46.706;12.340;2023-05-10T05:10:38;6.27;;;5.67;;
21621;SDS011;10973;46.706;12.340;2023-05-10T05:13:05;7.30;;;6.60;;
21621;SDS011;10973;46.706;12.340;2023-05-10T05:15:33;7.87;;;6.60;;
21621;SDS011;10973;46.706;12.340;2023-05-10T05:18:00;6.50;;;5.43;;
21621;SDS011;10973;46.706;12.340;2023-05-10T05:20:28;6.20;;;5.70;;
21621;SDS011;10973;46.706;12.340;2023-05-10T05:22:59;4.93;;;4.53;;
21621;SDS011;10973;46.706;12.340;2023-05-10T05:25:26;5.90;;;5.17;;
21621;SDS011;10973;46.706;12.340;2023-05-10T05:27:54;5.17;;;4.77;;
21621;SDS011;10973;46.706;12.340;2023-05-10T05:30:21;5.30;;;4.90;;
21621;SDS011;10973;46.706;12.340;2023-05-10T05:32:49;6.47;;;5.87;;
21621;SDS011;10973;46.706;12.340;2023-05-10T05:35:16;6.23;;;5.63;;
21621;SDS011;10973;46.706;12.340;2023-05-10T05:37:44;6.10;;;5.60;;
21621;SDS011;10973;46.706;12.340;2023-05-10T05:40:14;5.70;;;5.30;;
21621;SDS011;10973;46.706;12.340;2023-05-10T05:42:42;6.03;;;5.13;;
21621;SDS011;10973;46.706;12.340;2023-05-10T05:45:09;7.17;;;6.40;;
21621;SDS011;10973;46.706;12.340;2023-05-10T05:47:39;7.83;;;7.03;;
21621;SDS011;10973;46.706;12.340;2023-05-10T05:50:09;6.43;;;5.83;;
21621;SDS011;10973;46.706;12.340;2023-05-10T05:52:36;5.03;;;4.63;;
21621;SDS011;10973;46.706;12.340;2023-05-10T05:55:04;5.20;;;4.80;;
21621;SDS011;10973;46.706;12.340;2023-05-10T05:57:32;5.20;;;4.80;;
21621;SDS011;10973;46.706;12.340;2023-05-10T05:59:59;5.37;;;4.63;;
21621;SDS011;10973;46.706;12.340;2023-05-10T06:02:27;4.63;;;4.33;;
21621;SDS011;10973;46.706;12.340;2023-05-10T06:04:54;4.60;;;4.30;;
21621;SDS011;10973;46.706;12.340;2023-05-10T06:07:21;4.80;;;4.37;;
21621;SDS011;10973;46.706;12.340;2023-05-10T06:09:49;4.50;;;4.20;;
21621;SDS011;10973;46.706;12.340;2023-05-10T06:12:16;4.50;;;4.20;;
21621;SDS011;10973;46.706;12.340;2023-05-10T06:14:44;6.03;;;4.20;;
21621;SDS011;10973;46.706;12.340;2023-05-10T06:17:11;4.80;;;4.40;;
21621;SDS011;10973;46.706;12.340;2023-05-10T06:19:38;4.50;;;4.10;;
21621;SDS011;10973;46.706;12.340;2023-05-10T06:22:06;4.73;;;4.40;;
21621;SDS011;10973;46.706;12.340;2023-05-10T06:24:33;4.70;;;4.40;;
21621;SDS011;10973;46.706;12.340;2023-05-10T06:27:01;4.50;;;4.20;;
21621;SDS011;10973;46.706;12.340;2023-05-10T06:29:28;4.40;;;4.10;;
21621;SDS011;10973;46.706;12.340;2023-05-10T06:31:55;4.60;;;4.30;;
21621;SDS011;10973;46.706;12.340;2023-05-10T06:34:23;4.27;;;3.97;;
21621;SDS011;10973;46.706;12.340;2023-05-10T06:36:51;4.43;;;4.03;;
21621;SDS011;10973;46.706;12.340;2023-05-10T06:39:18;4.90;;;4.50;;
21621;SDS011;10973;46.706;12.340;2023-05-10T06:41:46;4.47;;;4.17;;
21621;SDS011;10973;46.706;12.340;2023-05-10T06:44:13;4.83;;;4.43;;
21621;SDS011;10973;46.706;12.340;2023-05-10T06:46:41;4.33;;;4.03;;
21621;SDS011;10973;46.706;12.340;2023-05-10T06:49:08;4.70;;;4.30;;
21621;SDS011;10973;46.706;12.340;2023-05-10T06:51:35;4.40;;;4.10;;
21621;SDS011;10973;46.706;12.340;2023-05-10T06:54:03;4.27;;;3.97;;
21621;SDS011;10973;46.706;12.340;2023-05-10T06:56:30;4.40;;;4.10;;
21621;SDS011;10973;46.706;12.340;2023-05-10T06:58:57;4.30;;;4.00;;
21621;SDS011;10973;46.706;12.340;2023-05-10T07:01:25;4.07;;;3.77;;
21621;SDS011;10973;46.706;12.340;2023-05-10T07:03:52;4.17;;;3.87;;
21621;SDS011;10973;46.706;12.340;2023-05-10T07:06:19;4.30;;;4.00;;
21621;SDS011;10973;46.706;12.340;2023-05-10T07:08:58;4.10;;;3.80;;
21621;SDS011;10973;46.706;12.340;2023-05-10T07:11:27;4.37;;;4.07;;
21621;SDS011;10973;46.706;12.340;2023-05-10T07:13:54;4.70;;;4.30;;
21621;SDS011;10973;46.706;12.340;2023-05-10T07:16:21;4.20;;;3.80;;
21621;SDS011;10973;46.706;12.340;2023-05-10T07:18:49;4.47;;;4.17;;
21621;SDS011;10973;46.706;12.340;2023-05-10T07:21:16;4.33;;;3.93;;
21621;SDS011;10973;46.706;12.340;2023-05-10T07:23:43;4.40;;;3.97;;
21621;SDS011;10973;46.706;12.340;2023-05-10T07:26:11;3.90;;;3.60;;
21621;SDS011;10973;46.706;12.340;2023-05-10T07:28:38;3.87;;;3.63;;
21621;SDS011;10973;46.706;12.340;2023-05-10T07:31:06;4.43;;;4.03;;
21621;SDS011;10973;46.706;12.340;2023-05-10T07:33:33;3.80;;;3.50;;
21621;SDS011;10973;46.706;12.340;2023-05-10T07:36:00;3.87;;;3.57;;
21621;SDS011;10973;46.706;12.340;2023-05-10T07:38:28;4.00;;;3.70;;
21621;SDS011;10973;46.706;12.340;2023-05-10T07:40:55;3.70;;;3.40;;
21621;SDS011;10973;46.706;12.340;2023-05-10T07:43:23;4.37;;;3.93;;
21621;SDS011;10973;46.706;12.340;2023-05-10T07:45:50;3.60;;;3.37;;
21621;SDS011;10973;46.706;12.340;2023-05-10T07:48:21;3.60;;;3.40;;
21621;SDS011;10973;46.706;12.340;2023-05-10T07:50:48;3.57;;;3.37;;
21621;SDS011;10973;46.706;12.340;2023-05-10T07:53:16;3.50;;;3.30;;
21621;SDS011;10973;46.706;12.340;2023-05-10T07:55:44;3.63;;;3.37;;
21621;SDS011;10973;46.706;12.340;2023-05-10T07:58:17;3.67;;;3.40;;
21621;SDS011;10973;46.706;12.340;2023-05-10T08:00:44;3.53;;;3.23;;
21621;SDS011;10973;46.706;12.340;2023-05-10T08:03:12;3.10;;;2.90;;
21621;SDS011;10973;46.706;12.340;2023-05-10T08:05:39;3.17;;;2.97;;
21621;SDS011;10973;46.706;12.340;2023-05-10T08:08:07;3.00;;;2.90;;
21621;SDS011;10973;46.706;12.340;2023-05-10T08:10:34;2.93;;;2.80;;
21621;SDS011;10973;46.706;12.340;2023-05-10T08:13:02;3.40;;;3.10;;
21621;SDS011;10973;46.706;12.340;2023-05-10T08:15:29;3.60;;;3.33;;
21621;SDS011;10973;46.706;12.340;2023-05-10T08:17:56;3.50;;;3.30;;
21621;SDS011;10973;46.706;12.340;2023-05-10T08:20:24;3.50;;;3.30;;
21621;SDS011;10973;46.706;12.340;2023-05-10T08:22:51;3.67;;;3.47;;
21621;SDS011;10973;46.706;12.340;2023-05-10T08:25:19;3.33;;;3.13;;
21621;SDS011;10973;46.706;12.340;2023-05-10T08:27:46;3.10;;;2.90;;
21621;SDS011;10973;46.706;12.340;2023-05-10T08:30:14;3.10;;;2.90;;
21621;SDS011;10973;46.706;12.340;2023-05-10T08:32:42;2.73;;;2.63;;
21621;SDS011;10973;46.706;12.340;2023-05-10T08:35:09;2.80;;;2.70;;
21621;SDS011;10973;46.706;12.340;2023-05-10T08:37:36;3.23;;;2.83;;
21621;SDS011;10973;46.706;12.340;2023-05-10T08:40:05;3.27;;;2.97;;
21621;SDS011;10973;46.706;12.340;2023-05-10T08:42:35;2.67;;;2.57;;
21621;SDS011;10973;46.706;12.340;2023-05-10T08:45:10;2.87;;;2.67;;
21621;SDS011;10973;46.706;12.340;2023-05-10T08:47:38;2.97;;;2.77;;
21621;SDS011;10973;46.706;12.340;2023-05-10T08:50:06;2.60;;;2.37;;
21621;SDS011;10973;46.706;12.340;2023-05-10T08:52:37;2.47;;;2.37;;
21621;SDS011;10973;46.706;12.340;2023-05-10T08:55:07;2.60;;;2.50;;
21621;SDS011;10973;46.706;12.340;2023-05-10T08:57:35;3.00;;;2.80;;
21621;SDS011;10973;46.706;12.340;2023-05-10T09:00:03;2.40;;;2.30;;
21621;SDS011;10973;46.706;12.340;2023-05-10T09:02:31;2.30;;;2.20;;
21621;SDS011;10973;46.706;12.340;2023-05-10T09:04:59;2.70;;;2.60;;
21621;SDS011;10973;46.706;12.340;2023-05-10T09:07:27;2.83;;;2.63;;
21621;SDS011;10973;46.706;12.340;2023-05-10T09:09:55;2.20;;;2.10;;
21621;SDS011;10973;46.706;12.340;2023-05-10T09:12:24;2.53;;;2.43;;
21621;SDS011;10973;46.706;12.340;2023-05-10T09:14:51;2.80;;;2.70;;
21621;SDS011;10973;46.706;12.340;2023-05-10T09:17:22;3.30;;;3.10;;
21621;SDS011;10973;46.706;12.340;2023-05-10T09:20:01;2.83;;;2.60;;
21621;SDS011;10973;46.706;12.340;2023-05-10T09:22:31;3.47;;;2.70;;
21621;SDS011;10973;46.706;12.340;2023-05-10T09:25:08;2.87;;;2.67;;
21621;SDS011;10973;46.706;12.340;2023-05-10T09:27:44;3.40;;;3.00;;
21621;SDS011;10973;46.706;12.340;2023-05-10T09:30:23;3.00;;;2.80;;
21621;SDS011;10973;46.706;12.340;2023-05-10T09:32:58;3.30;;;3.10;;
21621;SDS011;10973;46.706;12.340;2023-05-10T09:35:28;3.00;;;2.80;;
21621;SDS011;10973;46.706;12.340;2023-05-10T09:37:59;3.00;;;2.80;;
21621;SDS011;10973;46.706;12.340;2023-05-10T09:40:30;8.20;;;4.53;;
21621;SDS011;10973;46.706;12.340;2023-05-10T09:42:59;3.80;;;3.57;;
21621;SDS011;10973;46.706;12.340;2023-05-10T09:45:30;4.63;;;4.33;;
21621;SDS011;10973;46.706;12.340;2023-05-10T09:48:04;3.67;;;3.47;;
21621;SDS011;10973;46.706;12.340;2023-05-10T09:50:32;3.13;;;3.03;;
21621;SDS011;10973;46.706;12.340;2023-05-10T09:53:01;2.97;;;2.77;;
21621;SDS011;10973;46.706;12.340;2023-05-10T09:58:12;2.90;;;2.73;;
21621;SDS011;10973;46.706;12.340;2023-05-10T10:00:41;4.37;;;3.50;;
21621;SDS011;10973;46.706;12.340;2023-05-10T10:03:14;2.80;;;2.70;;
21621;SDS011;10973;46.706;12.340;2023-05-10T10:05:45;2.70;;;2.60;;
21621;SDS011;10973;46.706;12.340;2023-05-10T10:08:14;2.77;;;2.57;;
21621;SDS011;10973;46.706;12.340;2023-05-10T10:10:42;3.20;;;3.00;;
21621;SDS011;10973;46.706;12.340;2023-05-10T10:13:09;3.10;;;2.90;;
21621;SDS011;10973;46.706;12.340;2023-05-10T10:15:37;3.67;;;3.33;;
21621;SDS011;10973;46.706;12.340;2023-05-10T10:18:05;3.57;;;3.27;;
21621;SDS011;10973;46.706;12.340;2023-05-10T10:20:38;2.43;;;2.33;;
21621;SDS011;10973;46.706;12.340;2023-05-10T10:23:07;2.80;;;2.70;;
21621;SDS011;10973;46.706;12.340;2023-05-10T10:25:35;3.57;;;2.60;;
21621;SDS011;10973;46.706;12.340;2023-05-10T10:28:14;2.70;;;2.50;;
21621;SDS011;10973;46.706;12.340;2023-05-10T10:30:54;2.90;;;2.70;;
21621;SDS011;10973;46.706;12.340;2023-05-10T10:36:07;2.60;;;2.40;;
21621;SDS011;10973;46.706;12.340;2023-05-10T10:38:57;2.10;;;2.00;;
21621;SDS011;10973;46.706;12.340;2023-05-10T10:41:28;3.10;;;2.80;;
